sensor_id;sensor_type;location;lat;lon;timestamp;P1;durP1;ratioP1;P2;durP2;ratioP2
26536;SDS011;14204;51.262;5.488;2023-06-19T00:01:44;8.85;;;6.90;;
26536;SDS011;14204;51.262;5.488;2023-06-19T00:04:09;7.95;;;6.88;;
26536;SDS011;14204;51.262;5.488;2023-06-19T00:06:36;7.72;;;6.93;;
26536;SDS011;14204;51.262;5.488;2023-06-19T00:09:02;9.80;;;6.97;;
26536;SDS011;14204;51.262;5.488;2023-06-19T00:11:28;9.40;;;6.50;;
26536;SDS011;14204;51.262;5.488;2023-06-19T00:13:53;13.10;;;6.75;;
26536;SDS011;14204;51.262;5.488;2023-06-19T00:16:19;8.02;;;6.72;;
26536;SDS011;14204;51.262;5.488;2023-06-19T00:18:45;7.72;;;6.78;;
26536;SDS011;14204;51.262;5.488;2023-06-19T00:21:11;7.88;;;6.75;;
26536;SDS011;14204;51.262;5.488;2023-06-19T00:23:37;9.23;;;7.55;;
26536;SDS011;14204;51.262;5.488;2023-06-19T00:26:03;7.70;;;7.00;;
26536;SDS011;14204;51.262;5.488;2023-06-19T00:28:30;7.47;;;6.72;;
26536;SDS011;14204;51.262;5.488;2023-06-19T00:30:56;7.70;;;6.93;;
26536;SDS011;14204;51.262;5.488;2023-06-19T00:33:22;9.52;;;7.43;;
26536;SDS011;14204;51.262;5.488;2023-06-19T00:35:49;8.18;;;7.15;;
26536;SDS011;14204;51.262;5.488;2023-06-19T00:38:15;7.60;;;6.53;;
26536;SDS011;14204;51.262;5.488;2023-06-19T00:40:41;7.60;;;6.90;;
26536;SDS011;14204;51.262;5.488;2023-06-19T00:43:07;7.47;;;6.82;;
26536;SDS011;14204;51.262;5.488;2023-06-19T00:45:33;8.00;;;7.20;;
26536;SDS011;14204;51.262;5.488;2023-06-19T00:47:59;9.38;;;7.10;;
26536;SDS011;14204;51.262;5.488;2023-06-19T00:50:25;7.25;;;6.38;;
26536;SDS011;14204;51.262;5.488;2023-06-19T00:52:56;9.30;;;7.50;;
26536;SDS011;14204;51.262;5.488;2023-06-19T00:55:23;8.10;;;6.95;;
26536;SDS011;14204;51.262;5.488;2023-06-19T00:57:52;8.02;;;7.15;;
26536;SDS011;14204;51.262;5.488;2023-06-19T01:00:18;8.55;;;7.53;;
26536;SDS011;14204;51.262;5.488;2023-06-19T01:02:44;9.57;;;6.22;;
26536;SDS011;14204;51.262;5.488;2023-06-19T01:05:11;9.05;;;7.53;;
26536;SDS011;14204;51.262;5.488;2023-06-19T01:07:41;8.88;;;7.13;;
26536;SDS011;14204;51.262;5.488;2023-06-19T01:10:20;9.38;;;7.25;;
26536;SDS011;14204;51.262;5.488;2023-06-19T01:13:10;6.85;;;6.25;;
26536;SDS011;14204;51.262;5.488;2023-06-19T01:15:42;7.43;;;6.73;;
26536;SDS011;14204;51.262;5.488;2023-06-19T01:18:07;7.18;;;6.45;;
26536;SDS011;14204;51.262;5.488;2023-06-19T01:20:36;6.82;;;6.10;;
26536;SDS011;14204;51.262;5.488;2023-06-19T01:23:09;6.45;;;5.80;;
26536;SDS011;14204;51.262;5.488;2023-06-19T01:25:35;7.40;;;6.55;;
26536;SDS011;14204;51.262;5.488;2023-06-19T01:28:02;6.45;;;5.32;;
26536;SDS011;14204;51.262;5.488;2023-06-19T01:30:30;5.57;;;5.00;;
26536;SDS011;14204;51.262;5.488;2023-06-19T01:32:58;6.07;;;5.20;;
26536;SDS011;14204;51.262;5.488;2023-06-19T01:35:31;8.70;;;5.43;;
26536;SDS011;14204;51.262;5.488;2023-06-19T01:38:00;6.30;;;5.22;;
26536;SDS011;14204;51.262;5.488;2023-06-19T01:40:27;5.40;;;4.85;;
26536;SDS011;14204;51.262;5.488;2023-06-19T01:42:57;6.68;;;5.32;;
26536;SDS011;14204;51.262;5.488;2023-06-19T01:45:27;6.70;;;4.78;;
26536;SDS011;14204;51.262;5.488;2023-06-19T01:47:54;5.72;;;5.10;;
26536;SDS011;14204;51.262;5.488;2023-06-19T01:50:21;5.38;;;4.88;;
26536;SDS011;14204;51.262;5.488;2023-06-19T01:52:50;5.95;;;4.82;;
26536;SDS011;14204;51.262;5.488;2023-06-19T01:55:16;6.18;;;4.47;;
26536;SDS011;14204;51.262;5.488;2023-06-19T01:57:42;4.82;;;4.32;;
26536;SDS011;14204;51.262;5.488;2023-06-19T02:00:07;8.23;;;5.10;;
26536;SDS011;14204;51.262;5.488;2023-06-19T02:02:35;5.20;;;4.70;;
26536;SDS011;14204;51.262;5.488;2023-06-19T02:05:01;5.55;;;5.05;;
26536;SDS011;14204;51.262;5.488;2023-06-19T02:07:27;5.35;;;4.25;;
26536;SDS011;14204;51.262;5.488;2023-06-19T02:09:52;7.13;;;5.22;;
26536;SDS011;14204;51.262;5.488;2023-06-19T02:12:18;5.07;;;4.22;;
26536;SDS011;14204;51.262;5.488;2023-06-19T02:14:44;5.55;;;4.57;;
26536;SDS011;14204;51.262;5.488;2023-06-19T02:17:10;5.35;;;4.35;;
26536;SDS011;14204;51.262;5.488;2023-06-19T02:19:36;5.25;;;4.05;;
26536;SDS011;14204;51.262;5.488;2023-06-19T02:22:01;5.88;;;4.20;;
26536;SDS011;14204;51.262;5.488;2023-06-19T02:24:27;4.85;;;4.35;;
26536;SDS011;14204;51.262;5.488;2023-06-19T02:26:53;4.88;;;4.40;;
26536;SDS011;14204;51.262;5.488;2023-06-19T02:29:19;5.35;;;4.47;;
26536;SDS011;14204;51.262;5.488;2023-06-19T02:31:45;5.00;;;4.18;;
26536;SDS011;14204;51.262;5.488;2023-06-19T02:34:10;6.38;;;4.25;;
26536;SDS011;14204;51.262;5.488;2023-06-19T02:36:36;4.85;;;4.22;;
26536;SDS011;14204;51.262;5.488;2023-06-19T02:39:05;4.60;;;4.07;;
26536;SDS011;14204;51.262;5.488;2023-06-19T02:41:31;6.68;;;4.50;;
26536;SDS011;14204;51.262;5.488;2023-06-19T02:43:57;4.68;;;4.18;;
26536;SDS011;14204;51.262;5.488;2023-06-19T02:46:23;5.03;;;4.53;;
26536;SDS011;14204;51.262;5.488;2023-06-19T02:48:48;4.63;;;3.78;;
26536;SDS011;14204;51.262;5.488;2023-06-19T02:51:14;6.97;;;4.57;;
26536;SDS011;14204;51.262;5.488;2023-06-19T02:53:40;6.38;;;4.63;;
26536;SDS011;14204;51.262;5.488;2023-06-19T02:56:06;4.72;;;4.32;;
26536;SDS011;14204;51.262;5.488;2023-06-19T02:58:33;6.10;;;4.15;;
26536;SDS011;14204;51.262;5.488;2023-06-19T03:00:59;6.10;;;4.35;;
26536;SDS011;14204;51.262;5.488;2023-06-19T03:03:25;5.57;;;4.18;;
26536;SDS011;14204;51.262;5.488;2023-06-19T03:05:50;4.93;;;4.43;;
26536;SDS011;14204;51.262;5.488;2023-06-19T03:08:16;4.50;;;4.10;;
26536;SDS011;14204;51.262;5.488;2023-06-19T03:10:42;5.60;;;4.72;;
26536;SDS011;14204;51.262;5.488;2023-06-19T03:13:07;5.28;;;4.78;;
26536;SDS011;14204;51.262;5.488;2023-06-19T03:15:33;5.13;;;4.63;;
26536;SDS011;14204;51.262;5.488;2023-06-19T03:17:59;5.32;;;4.75;;
26536;SDS011;14204;51.262;5.488;2023-06-19T03:20:28;4.57;;;4.18;;
26536;SDS011;14204;51.262;5.488;2023-06-19T03:22:54;6.32;;;4.60;;
26536;SDS011;14204;51.262;5.488;2023-06-19T03:25:19;8.15;;;4.82;;
26536;SDS011;14204;51.262;5.488;2023-06-19T03:27:45;6.00;;;4.50;;
26536;SDS011;14204;51.262;5.488;2023-06-19T03:30:10;5.63;;;4.47;;
26536;SDS011;14204;51.262;5.488;2023-06-19T03:32:37;6.55;;;4.15;;
26536;SDS011;14204;51.262;5.488;2023-06-19T03:35:03;6.05;;;4.20;;
26536;SDS011;14204;51.262;5.488;2023-06-19T03:37:30;8.65;;;4.50;;
26536;SDS011;14204;51.262;5.488;2023-06-19T03:39:57;6.20;;;3.78;;
26536;SDS011;14204;51.262;5.488;2023-06-19T03:42:23;4.75;;;4.07;;
26536;SDS011;14204;51.262;5.488;2023-06-19T03:44:49;7.47;;;3.92;;
26536;SDS011;14204;51.262;5.488;2023-06-19T03:47:14;5.55;;;3.95;;
26536;SDS011;14204;51.262;5.488;2023-06-19T03:49:41;7.00;;;4.00;;
26536;SDS011;14204;51.262;5.488;2023-06-19T03:52:07;4.55;;;4.05;;
26536;SDS011;14204;51.262;5.488;2023-06-19T03:54:33;4.40;;;3.83;;
26536;SDS011;14204;51.262;5.488;2023-06-19T03:56:58;4.93;;;3.70;;
26536;SDS011;14204;51.262;5.488;2023-06-19T03:59:24;5.25;;;3.83;;
26536;SDS011;14204;51.262;5.488;2023-06-19T04:01:50;9.00;;;4.57;;
26536;SDS011;14204;51.262;5.488;2023-06-19T04:04:15;4.97;;;4.20;;
26536;SDS011;14204;51.262;5.488;2023-06-19T04:06:41;5.78;;;4.28;;
26536;SDS011;14204;51.262;5.488;2023-06-19T04:09:07;6.03;;;3.88;;
26536;SDS011;14204;51.262;5.488;2023-06-19T04:11:32;8.65;;;4.55;;
26536;SDS011;14204;51.262;5.488;2023-06-19T04:13:58;5.85;;;4.22;;
26536;SDS011;14204;51.262;5.488;2023-06-19T04:16:23;5.93;;;4.15;;
26536;SDS011;14204;51.262;5.488;2023-06-19T04:18:49;5.20;;;3.58;;
26536;SDS011;14204;51.262;5.488;2023-06-19T04:21:15;4.45;;;4.05;;
26536;SDS011;14204;51.262;5.488;2023-06-19T04:23:41;6.18;;;4.05;;
26536;SDS011;14204;51.262;5.488;2023-06-19T04:26:06;4.53;;;3.83;;
26536;SDS011;14204;51.262;5.488;2023-06-19T04:28:32;4.63;;;3.78;;
26536;SDS011;14204;51.262;5.488;2023-06-19T04:30:58;4.65;;;3.88;;
26536;SDS011;14204;51.262;5.488;2023-06-19T04:33:27;6.18;;;3.60;;
26536;SDS011;14204;51.262;5.488;2023-06-19T04:35:54;5.03;;;4.50;;
26536;SDS011;14204;51.262;5.488;2023-06-19T04:38:20;6.05;;;4.13;;
26536;SDS011;14204;51.262;5.488;2023-06-19T04:40:49;4.68;;;4.03;;
26536;SDS011;14204;51.262;5.488;2023-06-19T04:43:18;6.68;;;4.07;;
26536;SDS011;14204;51.262;5.488;2023-06-19T04:45:44;6.68;;;4.20;;
26536;SDS011;14204;51.262;5.488;2023-06-19T04:48:10;6.53;;;4.05;;
26536;SDS011;14204;51.262;5.488;2023-06-19T04:50:36;6.15;;;4.45;;
26536;SDS011;14204;51.262;5.488;2023-06-19T04:53:02;5.53;;;4.18;;
26536;SDS011;14204;51.262;5.488;2023-06-19T04:55:28;6.13;;;4.38;;
26536;SDS011;14204;51.262;5.488;2023-06-19T04:57:54;7.22;;;4.30;;
26536;SDS011;14204;51.262;5.488;2023-06-19T05:00:20;8.27;;;4.45;;
26536;SDS011;14204;51.262;5.488;2023-06-19T05:02:46;6.38;;;4.43;;
26536;SDS011;14204;51.262;5.488;2023-06-19T05:05:13;4.70;;;4.28;;
26536;SDS011;14204;51.262;5.488;2023-06-19T05:07:39;9.43;;;4.90;;
26536;SDS011;14204;51.262;5.488;2023-06-19T05:10:05;5.22;;;4.82;;
26536;SDS011;14204;51.262;5.488;2023-06-19T05:12:33;8.07;;;4.70;;
26536;SDS011;14204;51.262;5.488;2023-06-19T05:14:59;6.13;;;4.50;;
26536;SDS011;14204;51.262;5.488;2023-06-19T05:17:25;7.05;;;5.00;;
26536;SDS011;14204;51.262;5.488;2023-06-19T05:19:51;7.53;;;4.70;;
26536;SDS011;14204;51.262;5.488;2023-06-19T05:22:16;8.18;;;4.57;;
26536;SDS011;14204;51.262;5.488;2023-06-19T05:24:43;8.00;;;4.82;;
26536;SDS011;14204;51.262;5.488;2023-06-19T05:27:10;8.32;;;5.15;;
26536;SDS011;14204;51.262;5.488;2023-06-19T05:29:35;6.15;;;4.60;;
26536;SDS011;14204;51.262;5.488;2023-06-19T05:32:01;5.57;;;4.18;;
26536;SDS011;14204;51.262;5.488;2023-06-19T05:34:27;8.02;;;4.70;;
26536;SDS011;14204;51.262;5.488;2023-06-19T05:36:52;8.40;;;4.63;;
26536;SDS011;14204;51.262;5.488;2023-06-19T05:39:18;5.70;;;4.72;;
26536;SDS011;14204;51.262;5.488;2023-06-19T05:41:44;6.82;;;5.00;;
26536;SDS011;14204;51.262;5.488;2023-06-19T05:44:11;8.85;;;5.03;;
26536;SDS011;14204;51.262;5.488;2023-06-19T05:46:41;8.18;;;4.78;;
26536;SDS011;14204;51.262;5.488;2023-06-19T05:49:07;8.68;;;5.90;;
26536;SDS011;14204;51.262;5.488;2023-06-19T05:51:32;5.72;;;5.10;;
26536;SDS011;14204;51.262;5.488;2023-06-19T05:53:58;6.35;;;4.63;;
26536;SDS011;14204;51.262;5.488;2023-06-19T05:56:29;7.65;;;5.00;;
26536;SDS011;14204;51.262;5.488;2023-06-19T05:58:55;10.80;;;4.85;;
26536;SDS011;14204;51.262;5.488;2023-06-19T06:01:21;9.45;;;4.85;;
26536;SDS011;14204;51.262;5.488;2023-06-19T06:03:46;6.95;;;5.30;;
26536;SDS011;14204;51.262;5.488;2023-06-19T06:06:12;7.07;;;5.03;;
26536;SDS011;14204;51.262;5.488;2023-06-19T06:08:38;6.22;;;5.18;;
26536;SDS011;14204;51.262;5.488;2023-06-19T06:11:03;5.90;;;5.25;;
26536;SDS011;14204;51.262;5.488;2023-06-19T06:13:29;4.03;;;3.72;;
26536;SDS011;14204;51.262;5.488;2023-06-19T06:15:55;4.80;;;4.00;;
26536;SDS011;14204;51.262;5.488;2023-06-19T06:18:20;6.53;;;4.15;;
26536;SDS011;14204;51.262;5.488;2023-06-19T06:20:47;6.03;;;4.13;;
26536;SDS011;14204;51.262;5.488;2023-06-19T06:23:12;5.85;;;3.65;;
26536;SDS011;14204;51.262;5.488;2023-06-19T06:25:38;5.45;;;4.20;;
26536;SDS011;14204;51.262;5.488;2023-06-19T06:28:03;5.07;;;4.30;;
26536;SDS011;14204;51.262;5.488;2023-06-19T06:30:30;5.50;;;4.03;;
26536;SDS011;14204;51.262;5.488;2023-06-19T06:32:55;5.32;;;4.55;;
26536;SDS011;14204;51.262;5.488;2023-06-19T06:35:24;6.22;;;4.30;;
26536;SDS011;14204;51.262;5.488;2023-06-19T06:37:49;6.32;;;4.53;;
26536;SDS011;14204;51.262;5.488;2023-06-19T06:40:15;6.63;;;4.18;;
26536;SDS011;14204;51.262;5.488;2023-06-19T06:42:41;7.88;;;4.50;;
26536;SDS011;14204;51.262;5.488;2023-06-19T06:45:06;5.53;;;4.30;;
26536;SDS011;14204;51.262;5.488;2023-06-19T06:47:34;6.50;;;5.90;;
26536;SDS011;14204;51.262;5.488;2023-06-19T06:50:00;5.18;;;4.65;;
26536;SDS011;14204;51.262;5.488;2023-06-19T06:52:25;7.38;;;5.57;;
26536;SDS011;14204;51.262;5.488;2023-06-19T06:54:53;8.85;;;5.45;;
26536;SDS011;14204;51.262;5.488;2023-06-19T06:57:18;6.03;;;5.47;;
26536;SDS011;14204;51.262;5.488;2023-06-19T06:59:44;6.03;;;5.43;;
26536;SDS011;14204;51.262;5.488;2023-06-19T07:02:09;6.10;;;5.50;;
26536;SDS011;14204;51.262;5.488;2023-06-19T07:04:35;6.90;;;6.30;;
26536;SDS011;14204;51.262;5.488;2023-06-19T07:07:01;7.03;;;6.03;;
26536;SDS011;14204;51.262;5.488;2023-06-19T07:09:28;7.55;;;6.03;;
26536;SDS011;14204;51.262;5.488;2023-06-19T07:11:54;7.15;;;6.45;;
26536;SDS011;14204;51.262;5.488;2023-06-19T07:14:21;7.35;;;6.43;;
26536;SDS011;14204;51.262;5.488;2023-06-19T07:16:48;9.95;;;6.50;;
26536;SDS011;14204;51.262;5.488;2023-06-19T07:19:14;7.88;;;7.00;;
26536;SDS011;14204;51.262;5.488;2023-06-19T07:21:40;7.68;;;6.75;;
26536;SDS011;14204;51.262;5.488;2023-06-19T07:24:07;10.85;;;6.00;;
26536;SDS011;14204;51.262;5.488;2023-06-19T07:26:33;9.00;;;6.57;;
26536;SDS011;14204;51.262;5.488;2023-06-19T07:28:59;8.80;;;6.93;;
26536;SDS011;14204;51.262;5.488;2023-06-19T07:31:24;6.72;;;5.93;;
26536;SDS011;14204;51.262;5.488;2023-06-19T07:33:50;7.35;;;6.13;;
26536;SDS011;14204;51.262;5.488;2023-06-19T07:36:16;7.47;;;6.22;;
26536;SDS011;14204;51.262;5.488;2023-06-19T07:38:42;6.50;;;5.90;;
26536;SDS011;14204;51.262;5.488;2023-06-19T07:41:08;8.60;;;6.32;;
26536;SDS011;14204;51.262;5.488;2023-06-19T07:43:35;9.35;;;6.65;;
26536;SDS011;14204;51.262;5.488;2023-06-19T07:46:01;8.93;;;6.47;;
26536;SDS011;14204;51.262;5.488;2023-06-19T07:48:27;7.22;;;6.53;;
26536;SDS011;14204;51.262;5.488;2023-06-19T07:50:53;8.38;;;7.53;;
26536;SDS011;14204;51.262;5.488;2023-06-19T07:53:19;10.07;;;6.53;;
26536;SDS011;14204;51.262;5.488;2023-06-19T07:55:45;7.53;;;6.50;;
26536;SDS011;14204;51.262;5.488;2023-06-19T07:58:11;9.60;;;6.68;;
26536;SDS011;14204;51.262;5.488;2023-06-19T08:00:36;7.38;;;6.53;;
26536;SDS011;14204;51.262;5.488;2023-06-19T08:03:02;6.75;;;6.05;;
26536;SDS011;14204;51.262;5.488;2023-06-19T08:05:28;7.72;;;6.97;;
26536;SDS011;14204;51.262;5.488;2023-06-19T08:07:53;7.20;;;6.55;;
26536;SDS011;14204;51.262;5.488;2023-06-19T08:10:19;8.90;;;6.60;;
26536;SDS011;14204;51.262;5.488;2023-06-19T08:12:45;8.45;;;6.50;;
26536;SDS011;14204;51.262;5.488;2023-06-19T08:15:11;8.02;;;6.75;;
26536;SDS011;14204;51.262;5.488;2023-06-19T08:17:38;7.97;;;6.60;;
26536;SDS011;14204;51.262;5.488;2023-06-19T08:20:05;7.43;;;6.82;;
26536;SDS011;14204;51.262;5.488;2023-06-19T08:22:32;6.97;;;6.30;;
26536;SDS011;14204;51.262;5.488;2023-06-19T08:24:58;11.13;;;6.85;;
26536;SDS011;14204;51.262;5.488;2023-06-19T08:27:23;9.75;;;7.47;;
26536;SDS011;14204;51.262;5.488;2023-06-19T08:29:49;8.27;;;6.80;;
26536;SDS011;14204;51.262;5.488;2023-06-19T08:32:14;9.20;;;7.75;;
26536;SDS011;14204;51.262;5.488;2023-06-19T08:34:41;7.93;;;7.22;;
26536;SDS011;14204;51.262;5.488;2023-06-19T08:37:07;6.68;;;5.90;;
26536;SDS011;14204;51.262;5.488;2023-06-19T08:39:33;10.40;;;6.50;;
26536;SDS011;14204;51.262;5.488;2023-06-19T08:42:00;12.32;;;6.30;;
26536;SDS011;14204;51.262;5.488;2023-06-19T08:44:26;9.15;;;7.85;;
26536;SDS011;14204;51.262;5.488;2023-06-19T08:46:52;8.52;;;7.63;;
26536;SDS011;14204;51.262;5.488;2023-06-19T08:49:18;10.13;;;7.40;;
26536;SDS011;14204;51.262;5.488;2023-06-19T08:51:43;10.18;;;7.85;;
26536;SDS011;14204;51.262;5.488;2023-06-19T08:54:09;8.80;;;7.22;;
26536;SDS011;14204;51.262;5.488;2023-06-19T08:56:35;9.60;;;8.38;;
26536;SDS011;14204;51.262;5.488;2023-06-19T08:59:12;8.20;;;7.22;;
26536;SDS011;14204;51.262;5.488;2023-06-19T09:01:39;8.00;;;6.82;;
26536;SDS011;14204;51.262;5.488;2023-06-19T09:04:11;9.30;;;7.47;;
26536;SDS011;14204;51.262;5.488;2023-06-19T09:06:59;9.05;;;7.38;;
26536;SDS011;14204;51.262;5.488;2023-06-19T09:09:25;9.50;;;6.63;;
26536;SDS011;14204;51.262;5.488;2023-06-19T09:12:02;8.07;;;6.50;;
26536;SDS011;14204;51.262;5.488;2023-06-19T09:14:32;8.57;;;7.78;;
26536;SDS011;14204;51.262;5.488;2023-06-19T09:17:00;9.73;;;7.28;;
26536;SDS011;14204;51.262;5.488;2023-06-19T09:19:27;8.73;;;7.85;;
26536;SDS011;14204;51.262;5.488;2023-06-19T09:21:53;8.52;;;6.88;;
26536;SDS011;14204;51.262;5.488;2023-06-19T09:24:24;9.25;;;6.65;;
26536;SDS011;14204;51.262;5.488;2023-06-19T09:27:06;7.78;;;7.00;;
26536;SDS011;14204;51.262;5.488;2023-06-19T09:29:41;9.48;;;7.75;;
26536;SDS011;14204;51.262;5.488;2023-06-19T09:34:48;10.18;;;7.35;;
26536;SDS011;14204;51.262;5.488;2023-06-19T09:37:16;10.13;;;6.80;;
26536;SDS011;14204;51.262;5.488;2023-06-19T09:39:54;9.38;;;6.93;;
26536;SDS011;14204;51.262;5.488;2023-06-19T09:42:43;8.68;;;6.82;;
26536;SDS011;14204;51.262;5.488;2023-06-19T09:45:10;7.45;;;6.63;;
26536;SDS011;14204;51.262;5.488;2023-06-19T09:50:04;6.93;;;6.22;;
26536;SDS011;14204;51.262;5.488;2023-06-19T09:52:31;8.90;;;6.50;;
26536;SDS011;14204;51.262;5.488;2023-06-19T09:54:57;8.57;;;7.60;;
26536;SDS011;14204;51.262;5.488;2023-06-19T09:57:25;8.05;;;6.65;;
26536;SDS011;14204;51.262;5.488;2023-06-19T09:59:54;8.43;;;6.93;;
26536;SDS011;14204;51.262;5.488;2023-06-19T10:02:25;9.73;;;6.72;;
26536;SDS011;14204;51.262;5.488;2023-06-19T10:04:54;11.57;;;6.70;;
26536;SDS011;14204;51.262;5.488;2023-06-19T10:07:24;9.57;;;6.43;;
26536;SDS011;14204;51.262;5.488;2023-06-19T10:10:04;8.85;;;5.97;;
26536;SDS011;14204;51.262;5.488;2023-06-19T10:15:24;9.20;;;6.60;;
26536;SDS011;14204;51.262;5.488;2023-06-19T10:18:01;7.38;;;6.68;;
26536;SDS011;14204;51.262;5.488;2023-06-19T10:20:29;8.38;;;6.82;;
26536;SDS011;14204;51.262;5.488;2023-06-19T10:23:06;7.57;;;6.50;;
26536;SDS011;14204;51.262;5.488;2023-06-19T10:25:33;7.88;;;7.05;;
26536;SDS011;14204;51.262;5.488;2023-06-19T10:28:00;7.30;;;6.38;;
26536;SDS011;14204;51.262;5.488;2023-06-19T10:30:27;10.50;;;6.97;;
26536;SDS011;14204;51.262;5.488;2023-06-19T10:32:54;9.25;;;7.28;;
26536;SDS011;14204;51.262;5.488;2023-06-19T10:35:20;7.30;;;6.60;;
26536;SDS011;14204;51.262;5.488;2023-06-19T10:37:46;8.65;;;6.50;;
26536;SDS011;14204;51.262;5.488;2023-06-19T10:40:13;11.35;;;6.90;;
26536;SDS011;14204;51.262;5.488;2023-06-19T10:42:39;9.52;;;6.63;;
26536;SDS011;14204;51.262;5.488;2023-06-19T10:45:06;8.57;;;7.55;;
26536;SDS011;14204;51.262;5.488;2023-06-19T10:47:34;8.75;;;7.38;;
26536;SDS011;14204;51.262;5.488;2023-06-19T10:50:00;8.20;;;7.25;;
26536;SDS011;14204;51.262;5.488;2023-06-19T10:52:30;9.77;;;6.75;;
26536;SDS011;14204;51.262;5.488;2023-06-19T10:54:56;8.57;;;6.53;;
26536;SDS011;14204;51.262;5.488;2023-06-19T10:57:31;8.38;;;6.60;;
26536;SDS011;14204;51.262;5.488;2023-06-19T10:59:57;11.15;;;6.68;;
26536;SDS011;14204;51.262;5.488;2023-06-19T11:02:23;8.63;;;7.40;;
26536;SDS011;14204;51.262;5.488;2023-06-19T11:04:53;9.50;;;8.23;;
26536;SDS011;14204;51.262;5.488;2023-06-19T11:07:20;10.80;;;7.45;;
26536;SDS011;14204;51.262;5.488;2023-06-19T11:09:47;9.63;;;7.45;;
26536;SDS011;14204;51.262;5.488;2023-06-19T11:12:18;11.00;;;7.35;;
26536;SDS011;14204;51.262;5.488;2023-06-19T11:14:45;10.13;;;8.25;;
26536;SDS011;14204;51.262;5.488;2023-06-19T11:17:11;9.18;;;7.72;;
26536;SDS011;14204;51.262;5.488;2023-06-19T11:19:37;8.07;;;6.85;;
26536;SDS011;14204;51.262;5.488;2023-06-19T11:22:05;9.63;;;7.95;;
26536;SDS011;14204;51.262;5.488;2023-06-19T11:24:32;7.95;;;7.10;;
26536;SDS011;14204;51.262;5.488;2023-06-19T11:26:58;8.35;;;7.50;;
26536;SDS011;14204;51.262;5.488;2023-06-19T11:29:33;10.85;;;7.90;;
26536;SDS011;14204;51.262;5.488;2023-06-19T11:32:13;8.88;;;7.97;;
26536;SDS011;14204;51.262;5.488;2023-06-19T11:34:39;9.57;;;7.72;;
26536;SDS011;14204;51.262;5.488;2023-06-19T11:37:12;8.63;;;7.80;;
26536;SDS011;14204;51.262;5.488;2023-06-19T11:39:39;10.98;;;7.65;;
26536;SDS011;14204;51.262;5.488;2023-06-19T11:42:06;9.73;;;7.00;;
26536;SDS011;14204;51.262;5.488;2023-06-19T11:44:33;9.23;;;7.82;;
26536;SDS011;14204;51.262;5.488;2023-06-19T11:46:59;11.30;;;7.63;;
26536;SDS011;14204;51.262;5.488;2023-06-19T11:49:25;8.95;;;8.05;;
26536;SDS011;14204;51.262;5.488;2023-06-19T11:51:51;9.82;;;7.50;;
26536;SDS011;14204;51.262;5.488;2023-06-19T11:54:18;9.38;;;7.28;;
26536;SDS011;14204;51.262;5.488;2023-06-19T11:56:44;8.32;;;7.35;;
26536;SDS011;14204;51.262;5.488;2023-06-19T11:59:09;10.10;;;6.63;;
26536;SDS011;14204;51.262;5.488;2023-06-19T12:01:36;7.68;;;6.85;;
26536;SDS011;14204;51.262;5.488;2023-06-19T12:04:02;11.25;;;7.93;;
26536;SDS011;14204;51.262;5.488;2023-06-19T12:06:29;10.60;;;8.10;;
26536;SDS011;14204;51.262;5.488;2023-06-19T12:08:55;13.52;;;7.75;;
26536;SDS011;14204;51.262;5.488;2023-06-19T12:11:21;8.60;;;7.30;;
26536;SDS011;14204;51.262;5.488;2023-06-19T12:13:47;9.82;;;6.97;;
26536;SDS011;14204;51.262;5.488;2023-06-19T12:16:13;7.90;;;7.13;;
26536;SDS011;14204;51.262;5.488;2023-06-19T12:18:39;9.75;;;7.20;;
26536;SDS011;14204;51.262;5.488;2023-06-19T12:21:05;9.88;;;7.78;;
26536;SDS011;14204;51.262;5.488;2023-06-19T12:23:31;8.55;;;7.10;;
26536;SDS011;14204;51.262;5.488;2023-06-19T12:25:57;7.47;;;6.78;;
26536;SDS011;14204;51.262;5.488;2023-06-19T12:28:23;8.32;;;7.45;;
26536;SDS011;14204;51.262;5.488;2023-06-19T12:30:49;8.90;;;7.13;;
26536;SDS011;14204;51.262;5.488;2023-06-19T12:33:17;9.05;;;7.32;;
26536;SDS011;14204;51.262;5.488;2023-06-19T12:35:43;8.00;;;6.55;;
26536;SDS011;14204;51.262;5.488;2023-06-19T12:38:09;7.47;;;6.72;;
26536;SDS011;14204;51.262;5.488;2023-06-19T12:40:36;8.25;;;6.55;;
26536;SDS011;14204;51.262;5.488;2023-06-19T12:43:02;9.95;;;7.10;;
26536;SDS011;14204;51.262;5.488;2023-06-19T12:45:28;7.82;;;7.00;;
26536;SDS011;14204;51.262;5.488;2023-06-19T12:47:53;6.78;;;6.15;;
26536;SDS011;14204;51.262;5.488;2023-06-19T12:50:19;7.78;;;6.97;;
26536;SDS011;14204;51.262;5.488;2023-06-19T12:52:45;7.57;;;6.28;;
26536;SDS011;14204;51.262;5.488;2023-06-19T12:55:10;9.35;;;7.05;;
26536;SDS011;14204;51.262;5.488;2023-06-19T12:57:36;12.45;;;7.07;;
26536;SDS011;14204;51.262;5.488;2023-06-19T13:00:03;10.23;;;6.75;;
26536;SDS011;14204;51.262;5.488;2023-06-19T13:02:33;9.85;;;6.60;;
26536;SDS011;14204;51.262;5.488;2023-06-19T13:04:59;10.07;;;6.88;;
26536;SDS011;14204;51.262;5.488;2023-06-19T13:07:24;10.07;;;6.40;;
26536;SDS011;14204;51.262;5.488;2023-06-19T13:09:50;11.68;;;6.90;;
26536;SDS011;14204;51.262;5.488;2023-06-19T13:12:16;7.43;;;6.47;;
26536;SDS011;14204;51.262;5.488;2023-06-19T13:14:42;11.10;;;6.30;;
26536;SDS011;14204;51.262;5.488;2023-06-19T13:17:07;7.00;;;6.07;;
26536;SDS011;14204;51.262;5.488;2023-06-19T13:19:33;8.02;;;6.13;;
26536;SDS011;14204;51.262;5.488;2023-06-19T13:21:59;7.93;;;6.65;;
26536;SDS011;14204;51.262;5.488;2023-06-19T13:24:24;10.93;;;7.00;;
26536;SDS011;14204;51.262;5.488;2023-06-19T13:26:52;9.93;;;6.93;;
26536;SDS011;14204;51.262;5.488;2023-06-19T13:29:19;10.60;;;6.53;;
26536;SDS011;14204;51.262;5.488;2023-06-19T13:31:44;8.93;;;6.97;;
26536;SDS011;14204;51.262;5.488;2023-06-19T13:34:10;9.13;;;7.75;;
26536;SDS011;14204;51.262;5.488;2023-06-19T13:36:36;10.93;;;7.15;;
26536;SDS011;14204;51.262;5.488;2023-06-19T13:39:02;7.32;;;6.32;;
26536;SDS011;14204;51.262;5.488;2023-06-19T13:41:28;7.05;;;6.10;;
26536;SDS011;14204;51.262;5.488;2023-06-19T13:43:56;12.05;;;6.80;;
26536;SDS011;14204;51.262;5.488;2023-06-19T13:46:22;8.80;;;6.88;;
26536;SDS011;14204;51.262;5.488;2023-06-19T13:48:47;9.65;;;7.50;;
26536;SDS011;14204;51.262;5.488;2023-06-19T13:51:19;7.00;;;6.15;;
26536;SDS011;14204;51.262;5.488;2023-06-19T13:53:46;10.55;;;6.38;;
26536;SDS011;14204;51.262;5.488;2023-06-19T13:56:12;10.75;;;7.10;;
26536;SDS011;14204;51.262;5.488;2023-06-19T13:58:38;8.38;;;7.45;;
26536;SDS011;14204;51.262;5.488;2023-06-19T14:01:04;8.27;;;6.57;;
26536;SDS011;14204;51.262;5.488;2023-06-19T14:03:31;8.68;;;5.85;;
26536;SDS011;14204;51.262;5.488;2023-06-19T14:05:57;9.70;;;7.38;;
26536;SDS011;14204;51.262;5.488;2023-06-19T14:08:23;9.35;;;8.00;;
26536;SDS011;14204;51.262;5.488;2023-06-19T14:10:49;9.45;;;7.15;;
26536;SDS011;14204;51.262;5.488;2023-06-19T14:13:15;7.97;;;7.18;;
26536;SDS011;14204;51.262;5.488;2023-06-19T14:15:41;10.52;;;7.93;;
26536;SDS011;14204;51.262;5.488;2023-06-19T14:18:07;8.60;;;7.47;;
26536;SDS011;14204;51.262;5.488;2023-06-19T14:20:33;8.07;;;7.28;;
26536;SDS011;14204;51.262;5.488;2023-06-19T14:22:59;8.60;;;7.80;;
26536;SDS011;14204;51.262;5.488;2023-06-19T14:25:24;8.45;;;7.68;;
26536;SDS011;14204;51.262;5.488;2023-06-19T14:27:50;8.63;;;6.45;;
26536;SDS011;14204;51.262;5.488;2023-06-19T14:30:16;8.60;;;7.07;;
26536;SDS011;14204;51.262;5.488;2023-06-19T14:32:41;7.93;;;6.68;;
26536;SDS011;14204;51.262;5.488;2023-06-19T14:35:07;10.55;;;7.57;;
26536;SDS011;14204;51.262;5.488;2023-06-19T14:37:33;11.20;;;7.43;;
26536;SDS011;14204;51.262;5.488;2023-06-19T14:39:58;8.65;;;7.85;;
26536;SDS011;14204;51.262;5.488;2023-06-19T14:42:24;10.38;;;8.07;;
26536;SDS011;14204;51.262;5.488;2023-06-19T14:44:50;8.32;;;7.50;;
26536;SDS011;14204;51.262;5.488;2023-06-19T14:47:15;10.38;;;7.43;;
26536;SDS011;14204;51.262;5.488;2023-06-19T14:49:41;8.27;;;6.95;;
26536;SDS011;14204;51.262;5.488;2023-06-19T14:52:07;8.32;;;7.53;;